Time;durP1;ratioP1;P1;durP2;ratioP2;P2;SDS_P1;SDS_P2;PMS_P1;PMS_P2;Temp;Humidity;BMP_temperature;BMP_pressure;BME280_temperature;BME280_humidity;BME280_pressure;Samples;Min_cycle;Max_cycle;Signal;HPM_P1;HPM_P2
2021/03/07 00:00:14;;;;;;;13.40;5.70;;;;;;;-4.17;67.33;100807.14;1732247;82;21663;-75
2021/03/07 00:02:42;;;;;;;11.77;5.87;;;;;;;-4.16;67.99;100802.48;1744485;81;21223;-75
2021/03/07 00:05:14;;;;;;;15.73;6.00;;;;;;;-4.18;68.80;100793.83;1753979;81;21214;-75
2021/03/07 00:07:44;;;;;;;11.40;5.47;;;;;;;-4.19;67.88;100786.92;1757086;81;21146;-73
2021/03/07 00:10:17;;;;;;;12.00;5.37;;;;;;;-4.17;68.67;100777.98;1757005;81;21246;-74
2021/03/07 00:12:46;;;;;;;12.57;5.93;;;;;;;-4.17;68.62;100789.14;1757103;81;21385;-74
2021/03/07 00:15:15;;;;;;;11.37;5.33;;;;;;;-4.17;68.73;100780.13;1756958;81;21190;-76
2021/03/07 00:17:43;;;;;;;13.70;6.10;;;;;;;-4.18;70.03;100775.83;1757167;81;21134;-76
2021/03/07 00:20:15;;;;;;;14.50;6.27;;;;;;;-4.20;68.87;100768.47;1757888;80;21202;-73
2021/03/07 00:22:42;;;;;;;10.83;5.57;;;;;;;-4.16;69.71;100766.47;1775619;80;21194;-75
2021/03/07 00:25:15;;;;;;;11.20;6.13;;;;;;;-4.15;69.94;100763.06;1775683;80;22458;-74
2021/03/07 00:27:43;;;;;;;10.70;5.87;;;;;;;-4.17;68.95;100765.98;1775704;80;21167;-75
2021/03/07 00:30:16;;;;;;;15.43;6.27;;;;;;;-4.18;69.68;100750.11;1775604;80;21175;-73
2021/03/07 00:32:45;;;;;;;15.83;6.37;;;;;;;-4.17;69.72;100756.98;1775519;80;21186;-74
2021/03/07 00:35:14;;;;;;;14.07;7.10;;;;;;;-4.18;69.08;100752.68;1775521;80;21099;-74
2021/03/07 00:37:42;;;;;;;16.93;6.90;;;;;;;-4.19;70.98;100743.20;1775557;80;21917;-76
2021/03/07 00:40:13;;;;;;;18.60;7.80;;;;;;;-4.20;69.80;100741.47;1775718;80;21669;-73
2021/03/07 00:42:45;;;;;;;15.85;7.30;;;;;;;-4.21;70.12;100733.27;1775789;80;21634;-74
2021/03/07 00:45:17;;;;;;;19.97;8.20;;;;;;;-4.21;70.75;100731.98;1775562;80;21183;-74
2021/03/07 00:47:45;;;;;;;12.93;7.10;;;;;;;-4.24;69.97;100726.75;1775395;80;21134;-73
2021/03/07 00:50:19;;;;;;;14.67;7.87;;;;;;;-4.27;70.32;100718.53;1775503;80;21378;-72
2021/03/07 00:52:46;;;;;;;15.97;7.67;;;;;;;-4.30;70.38;100711.11;1775810;80;21210;-70
2021/03/07 00:55:14;;;;;;;15.67;7.63;;;;;;;-4.30;70.64;100705.97;1776384;80;21140;-71
2021/03/07 00:57:42;;;;;;;17.37;8.80;;;;;;;-4.32;72.27;100701.22;1776062;80;21175;-70
2021/03/07 01:00:22;;;;;;;18.87;8.83;;;;;;;-4.34;71.08;100697.72;1775719;80;21198;-68
2021/03/07 01:02:49;;;;;;;15.50;7.40;;;;;;;-4.36;71.62;100685.22;1775356;80;22762;-68
2021/03/07 01:05:18;;;;;;;18.43;8.77;;;;;;;-4.37;72.53;100687.31;1775831;80;21191;-69
2021/03/07 01:07:48;;;;;;;19.77;8.57;;;;;;;-4.40;71.37;100678.23;1775885;80;21184;-69
2021/03/07 01:10:27;;;;;;;16.90;8.30;;;;;;;-4.39;72.60;100677.39;1776083;80;22331;-71
2021/03/07 01:12:55;;;;;;;20.10;9.47;;;;;;;-4.40;72.24;100675.66;1734584;82;21186;-70
2021/03/07 01:15:26;;;;;;;21.60;9.30;;;;;;;-4.45;71.79;100664.80;1776074;80;21828;-71
2021/03/07 01:17:56;;;;;;;22.33;10.53;;;;;;;-4.46;73.27;100660.50;1734427;82;21229;-70
2021/03/07 01:20:25;;;;;;;24.20;10.60;;;;;;;-4.47;72.45;100663.87;1778098;80;21322;-69
2021/03/07 01:22:55;;;;;;;21.23;9.70;;;;;;;-4.50;72.44;100652.22;1791733;80;21274;-71
2021/03/07 01:25:31;;;;;;;29.43;12.40;;;;;;;-4.50;72.87;100651.35;1792357;80;21234;-71
2021/03/07 01:28:03;;;;;;;27.40;13.43;;;;;;;-4.54;72.33;100641.79;1792276;80;21360;-70
2021/03/07 01:30:36;;;;;;;29.67;11.90;;;;;;;-4.53;72.73;100645.70;1791851;80;21540;-69
2021/03/07 01:33:06;;;;;;;27.23;12.47;;;;;;;-4.52;72.96;100641.02;1791972;80;21183;-71
2021/03/07 01:35:34;;;;;;;24.97;9.50;;;;;;;-4.53;72.51;100638.00;1791910;80;21209;-70
2021/03/07 01:38:06;;;;;;;20.83;10.00;;;;;;;-4.52;73.46;100620.45;1791841;80;21170;-70
2021/03/07 01:40:50;;;;;;;23.67;10.47;;;;;;;-4.52;73.11;100628.16;1791764;80;21878;-69
2021/03/07 01:43:19;;;;;;;28.97;10.73;;;;;;;-4.52;72.89;100630.73;1791730;80;21388;-69
2021/03/07 01:45:48;;;;;;;27.27;11.00;;;;;;;-4.51;73.23;100622.21;1791869;80;21541;-70
2021/03/07 01:48:17;;;;;;;29.00;10.53;;;;;;;-4.49;73.35;100624.39;1791694;80;21130;-69
2021/03/07 01:50:48;;;;;;;20.57;9.13;;;;;;;-4.45;72.93;100618.52;1791729;80;21166;-70
2021/03/07 01:53:18;;;;;;;24.80;9.77;;;;;;;-4.39;73.45;100620.82;1791899;80;21382;-71
2021/03/07 01:55:46;;;;;;;20.33;8.83;;;;;;;-4.37;72.66;100618.78;1760863;80;21266;-69
2021/03/07 01:58:23;;;;;;;21.57;10.43;;;;;;;-4.34;72.61;100620.16;1760518;81;21159;-71
2021/03/07 02:00:51;;;;;;;19.60;7.93;;;;;;;-4.29;73.19;100619.02;1760426;81;21175;-69
2021/03/07 02:03:19;;;;;;;20.97;8.17;;;;;;;-4.26;72.47;100613.95;1760382;81;21642;-71
2021/03/07 02:05:47;;;;;;;16.27;6.93;;;;;;;-4.24;73.07;100598.16;1769632;80;21371;-72
2021/03/07 02:08:16;;;;;;;17.87;7.33;;;;;;;-4.24;72.56;100595.59;1745982;80;21198;-73
2021/03/07 02:10:55;;;;;;;15.23;6.60;;;;;;;-4.20;72.33;100588.43;1742616;82;21151;-73
2021/03/07 02:13:31;;;;;;;17.53;7.83;;;;;;;-4.16;73.88;100581.27;1742952;82;21191;-72
2021/03/07 02:16:08;;;;;;;21.87;8.67;;;;;;;-4.12;72.08;100585.66;1742876;82;21159;-74
2021/03/07 02:18:40;;;;;;;18.23;7.70;;;;;;;-4.12;72.11;100577.94;1742878;82;21485;-73
2021/03/07 02:21:19;;;;;;;18.40;8.03;;;;;;;-4.14;72.56;100565.86;1756200;80;21219;-73
2021/03/07 02:24:04;;;;;;;20.60;6.97;;;;;;;-4.12;71.77;100575.36;1773633;80;21127;-72
2021/03/07 02:26:33;;;;;;;16.50;7.00;;;;;;;-4.12;71.73;100570.64;1773513;80;21441;-71
2021/03/07 02:29:01;;;;;;;19.07;8.03;;;;;;;-4.09;72.76;100574.19;1748818;80;21596;-71
2021/03/07 02:31:29;;;;;;;14.40;7.20;;;;;;;-4.10;71.86;100571.56;1773399;80;21807;-71
2021/03/07 02:34:07;;;;;;;9.97;6.50;;;;;;;-4.10;72.31;100568.56;1749771;80;21198;-72
2021/03/07 02:36:42;;;;;;;18.73;8.33;;;;;;;-4.11;72.31;100552.69;1773433;80;21160;-72
2021/03/07 02:39:10;;;;;;;15.20;6.60;;;;;;;-4.08;71.66;100545.47;1773375;80;21179;-71
2021/03/07 02:41:40;;;;;;;17.12;7.97;;;;;;;-4.07;72.13;100542.95;1773411;80;21170;-70
2021/03/07 02:44:13;;;;;;;16.70;8.20;;;;;;;-4.08;71.71;100539.91;1773547;80;22690;-71
2021/03/07 02:46:41;;;;;;;13.77;7.60;;;;;;;-4.04;71.61;100536.59;1773331;80;21128;-71
2021/03/07 02:49:12;;;;;;;15.17;6.77;;;;;;;-4.06;72.54;100531.82;1773527;80;21127;-71
2021/03/07 02:51:41;;;;;;;17.80;7.77;;;;;;;-4.05;71.24;100522.01;1773565;80;21686;-72
2021/03/07 02:54:10;;;;;;;13.80;6.13;;;;;;;-4.02;71.61;100519.93;1773556;80;21203;-71
2021/03/07 02:56:43;;;;;;;19.40;6.47;;;;;;;-4.01;71.89;100510.08;1772518;80;21388;-71
2021/03/07 02:59:12;;;;;;;10.58;5.55;;;;;;;-4.01;71.03;100514.81;1750699;80;21203;-71
2021/03/07 03:01:41;;;;;;;17.00;7.03;;;;;;;-3.95;72.14;100514.55;1773907;80;21674;-71
2021/03/07 03:04:08;;;;;;;10.60;6.33;;;;;;;-3.94;70.88;100511.13;1773542;80;21634;-70
2021/03/07 03:06:38;;;;;;;14.23;6.83;;;;;;;-3.95;70.62;100508.11;1772994;80;21171;-73
2021/03/07 03:09:06;;;;;;;20.93;7.20;;;;;;;-3.92;71.18;100506.48;1773228;80;21205;-71
2021/03/07 03:11:37;;;;;;;10.80;5.17;;;;;;;-3.94;70.59;100491.83;1772986;80;21225;-72
2021/03/07 03:14:07;;;;;;;15.00;6.85;;;;;;;-3.92;70.85;100490.17;1773344;80;21167;-71
2021/03/07 03:16:34;;;;;;;15.53;6.97;;;;;;;-3.91;70.99;100486.76;1747990;80;21168;-71
2021/03/07 03:19:08;;;;;;;18.80;6.90;;;;;;;-3.93;70.48;100484.59;1773506;80;21294;-72
2021/03/07 03:21:38;;;;;;;14.93;7.13;;;;;;;-3.93;70.64;100472.59;1765501;80;21366;-73
2021/03/07 03:24:08;;;;;;;19.47;7.27;;;;;;;-3.91;70.30;100477.75;1733215;81;21658;-72
2021/03/07 03:26:36;;;;;;;18.23;6.83;;;;;;;-3.90;70.22;100468.80;1760056;81;21185;-73
2021/03/07 03:29:05;;;;;;;19.43;7.67;;;;;;;-3.86;71.26;100464.62;1760192;81;21199;-72
2021/03/07 03:31:38;;;;;;;21.97;7.97;;;;;;;-3.83;69.52;100454.40;1759811;81;21184;-71
2021/03/07 03:34:09;;;;;;;13.10;4.83;;;;;;;-3.81;69.41;100455.31;1760376;81;22468;-71
2021/03/07 03:36:39;;;;;;;24.57;7.60;;;;;;;-3.81;69.72;100441.16;1759739;81;21235;-71
2021/03/07 03:39:20;;;;;;;27.00;7.75;;;;;;;-3.80;69.09;100428.73;1761116;81;21148;-72
2021/03/07 03:42:04;;;;;;;28.90;7.70;;;;;;;-3.81;69.32;100429.58;1760721;81;21212;-70
2021/03/07 03:44:36;;;;;;;22.13;6.90;;;;;;;-3.78;69.35;100419.77;1760283;81;21124;-70
2021/03/07 03:47:09;;;;;;;15.70;6.73;;;;;;;-3.75;68.62;100406.97;1760149;81;21388;-70
2021/03/07 03:49:55;;;;;;;21.70;7.33;;;;;;;-3.72;69.80;100415.66;1744104;81;21195;-72
2021/03/07 03:52:30;;;;;;;16.10;7.00;;;;;;;-3.63;69.68;100413.31;1887822;75;22593;-69
2021/03/07 03:55:02;;;;;;;19.33;6.40;;;;;;;-3.66;68.43;100400.77;1853677;77;21154;-69
2021/03/07 03:57:31;;;;;;;14.50;6.53;;;;;;;-3.63;69.93;100391.43;1858728;77;21879;-70
2021/03/07 04:00:07;;;;;;;14.07;7.20;;;;;;;-3.60;67.95;100398.36;1854135;77;21232;-70
2021/03/07 04:03:49;;;;;;;15.03;6.13;;;;;;;-3.52;67.76;100379.22;1748589;79;22685;-70
2021/03/07 04:06:25;;;;;;;19.73;6.95;;;;;;;-3.57;67.58;100375.67;1717800;83;21191;-72
2021/03/07 04:08:53;;;;;;;28.47;10.90;;;;;;;-3.54;68.81;100371.88;1717774;83;21393;-69
2021/03/07 04:11:21;;;;;;;23.97;9.80;;;;;;;-3.52;67.39;100358.63;1718907;83;21080;-71
2021/03/07 04:13:50;;;;;;;20.15;9.08;;;;;;;-3.49;68.92;100353.56;1720677;83;21195;-70
2021/03/07 04:16:17;;;;;;;15.18;6.90;;;;;;;-3.50;67.85;100353.09;1717473;82;21717;-70
2021/03/07 04:18:46;;;;;;;18.03;7.57;;;;;;;-3.51;67.31;100346.22;1717380;83;21151;-70
2021/03/07 04:21:14;;;;;;;15.53;7.12;;;;;;;-3.48;68.00;100346.28;1717317;83;21225;-71
2021/03/07 04:23:41;;;;;;;12.90;6.70;;;;;;;-3.50;67.28;100338.94;1717311;82;21163;-70
2021/03/07 04:26:14;;;;;;;13.00;6.47;;;;;;;-3.49;67.78;100329.97;1717376;83;21698;-71
2021/03/07 04:28:40;;;;;;;16.32;7.05;;;;;;;-3.48;68.78;100325.69;1717722;83;21207;-69
2021/03/07 04:31:08;;;;;;;14.73;6.90;;;;;;;-3.47;67.41;100323.16;1717338;83;21183;-70
2021/03/07 04:33:37;;;;;;;13.65;6.20;;;;;;;-3.44;67.84;100317.20;1689541;83;22550;-70
2021/03/07 04:36:05;;;;;;;12.63;6.93;;;;;;;-3.63;66.99;100285.89;1717469;83;21642;-68
2021/03/07 04:38:33;;;;;;;13.62;6.15;;;;;;;-3.40;67.05;100308.72;1717448;83;21203;-69
2021/03/07 04:41:05;;;;;;;14.87;6.17;;;;;;;-3.38;68.05;100297.61;1717359;83;21162;-70
2021/03/07 04:43:51;;;;;;;23.52;6.92;;;;;;;-3.37;66.67;100290.32;1717493;83;21198;-71
2021/03/07 04:46:22;;;;;;;19.83;7.73;;;;;;;-3.31;67.05;100290.89;1716219;83;21776;-71
2021/03/07 04:48:50;;;;;;;15.03;7.30;;;;;;;-3.30;68.48;100291.33;1717336;83;21230;-71
2021/03/07 04:51:18;;;;;;;13.65;6.62;;;;;;;-3.25;66.25;100294.86;1717317;83;21111;-71
2021/03/07 04:53:46;;;;;;;14.55;6.72;;;;;;;-3.19;68.34;100291.14;1717545;83;21186;-72
2021/03/07 04:56:14;;;;;;;15.20;6.92;;;;;;;-3.15;67.05;100277.92;1717641;83;21211;-68
2021/03/07 04:58:42;;;;;;;19.40;7.53;;;;;;;-3.09;66.19;100275.45;1717626;83;21242;-70
2021/03/07 05:01:10;;;;;;;17.70;7.92;;;;;;;-3.07;66.71;100279.36;1717374;83;21202;-71
2021/03/07 05:03:46;;;;;;;14.58;6.85;;;;;;;-3.03;65.64;100285.03;1718366;83;21566;-71
2021/03/07 05:06:15;;;;;;;10.03;5.20;;;;;;;-3.01;65.53;100270.47;1718320;83;21133;-70
2021/03/07 05:08:44;;;;;;;16.75;8.03;;;;;;;-2.96;66.41;100277.44;1718257;83;21238;-69
2021/03/07 05:11:13;;;;;;;15.95;7.45;;;;;;;-2.89;65.09;100279.72;1718565;83;21825;-70
2021/03/07 05:13:41;;;;;;;26.33;7.80;;;;;;;-2.81;69.42;100282.44;1693002;83;21187;-71
2021/03/07 05:16:09;;;;;;;14.35;6.78;;;;;;;-2.78;64.59;100271.78;1717976;83;21666;-71
2021/03/07 05:18:40;;;;;;;25.50;8.63;;;;;;;-2.72;64.44;100269.73;1718060;83;21174;-72
2021/03/07 05:21:08;;;;;;;23.30;8.20;;;;;;;-2.68;64.69;100260.36;1705632;83;21179;-70
2021/03/07 05:23:37;;;;;;;20.20;7.62;;;;;;;-2.63;63.96;100260.87;1689304;84;21208;-70
2021/03/07 05:26:05;;;;;;;17.55;7.00;;;;;;;-2.57;64.11;100258.42;1689067;84;21187;-72
2021/03/07 05:28:35;;;;;;;17.90;7.37;;;;;;;-2.50;64.85;100255.53;1689188;84;21218;-71
2021/03/07 05:31:05;;;;;;;15.85;7.28;;;;;;;-2.44;63.46;100253.08;1711912;83;21190;-72
2021/03/07 05:33:33;;;;;;;18.23;8.60;;;;;;;-2.38;64.70;100251.88;1718076;83;21424;-72
2021/03/07 05:36:01;;;;;;;18.48;7.20;;;;;;;-2.32;63.42;100242.09;1718016;83;21284;-75
2021/03/07 05:38:28;;;;;;;18.82;8.25;;;;;;;-2.24;63.18;100247.37;1717739;83;21202;-74
2021/03/07 05:40:56;;;;;;;18.55;8.13;;;;;;;-2.16;65.06;100240.64;1711760;83;21241;-73
2021/03/07 05:43:24;;;;;;;13.98;7.15;;;;;;;-2.07;62.56;100248.53;1706280;84;21229;-73
2021/03/07 05:45:52;;;;;;;23.38;9.35;;;;;;;-2.01;62.63;100238.28;1706384;83;21178;-72
2021/03/07 05:48:21;;;;;;;26.23;10.38;;;;;;;-1.97;62.33;100236.20;1706259;84;22323;-72
2021/03/07 05:50:51;;;;;;;26.57;7.58;;;;;;;-1.88;62.42;100233.33;1706464;84;21814;-73
2021/03/07 05:53:19;;;;;;;26.00;9.95;;;;;;;-1.84;62.66;100223.08;1706470;84;21593;-72
2021/03/07 05:55:47;;;;;;;19.90;8.35;;;;;;;-1.80;62.21;100226.55;1706530;84;21680;-73
2021/03/07 05:58:14;;;;;;;34.88;11.78;;;;;;;-1.70;62.14;100220.69;1706345;84;21997;-75
2021/03/07 06:00:45;;;;;;;21.77;9.30;;;;;;;-1.56;63.98;100209.27;1706258;84;21197;-75
2021/03/07 06:03:15;;;;;;;;;;;;;;;-1.38;61.02;100215.06;1698799;83;21477;-73
2021/03/07 06:05:51;;;;;;;22.75;9.63;;;;;;;-1.20;61.59;100214.00;1637017;86;20278;-74
2021/03/07 06:08:20;;;;;;;20.55;8.65;;;;;;;-1.14;61.12;100217.96;1661908;85;21712;-74
2021/03/07 06:10:49;;;;;;;25.90;9.43;;;;;;;-0.98;59.55;100203.92;1683951;85;21205;-73
2021/03/07 06:13:17;;;;;;;30.48;10.53;;;;;;;-0.82;61.03;100201.95;1684064;84;21631;-73
2021/03/07 06:15:50;;;;;;;34.13;12.68;;;;;;;-0.71;59.10;100189.98;1684076;84;21748;-73
2021/03/07 06:18:21;;;;;;;23.83;10.43;;;;;;;-0.53;59.34;100187.12;1685127;85;21249;-73
2021/03/07 06:20:52;;;;;;;23.87;9.60;;;;;;;-0.44;59.50;100183.31;1683872;83;21641;-73
2021/03/07 06:23:39;;;;;;;25.77;10.60;;;;;;;-0.42;57.72;100190.67;1700519;83;22152;-70
2021/03/07 06:26:16;;;;;;;29.65;10.05;;;;;;;-0.35;58.67;100179.51;1697173;83;22685;-70
2021/03/07 06:28:41;;;;;;;23.55;9.28;;;;;;;-0.35;58.78;100177.36;1683542;85;21175;-71
2021/03/07 06:31:30;;;;;;;23.32;10.23;;;;;;;-0.24;57.06;100171.41;1683788;83;21254;-71
2021/03/07 06:34:01;;;;;;;74.30;11.60;;;;;;;-0.08;58.88;100158.58;1683787;85;21199;-69
2021/03/07 06:36:29;;;;;;;25.68;9.93;;;;;;;0.08;56.10;100175.95;1683849;85;21167;-70
2021/03/07 06:39:01;;;;;;;33.42;10.55;;;;;;;0.26;55.67;100179.52;1683763;85;21396;-71
2021/03/07 06:41:32;;;;;;;30.70;11.33;;;;;;;0.39;54.95;100157.97;1683314;83;21214;-70
2021/03/07 06:44:13;;;;;;;;;;;;;;;0.35;55.07;100154.95;1698451;83;21211;-70
2021/03/07 06:46:48;;;;;;;30.23;11.40;;;;;;;0.53;54.50;100152.45;1903026;74;22893;-70
2021/03/07 06:49:25;;;;;;;41.68;11.97;;;;;;;0.50;54.51;100149.82;1875873;75;22101;-70
2021/03/07 06:54:37;;;;;;;21.80;10.73;;;;;;;0.72;53.62;100138.26;1829868;76;22752;-71
2021/03/07 06:57:07;;;;;;;21.57;9.75;;;;;;;1.01;53.98;100146.98;1798439;79;21214;-71
2021/03/07 06:59:34;;;;;;;27.95;11.73;;;;;;;1.33;52.35;100140.95;1782395;79;21787;-71
2021/03/07 07:02:11;;;;;;;17.62;10.03;;;;;;;1.59;51.95;100137.52;1784314;80;21202;-69
2021/03/07 07:04:43;;;;;;;28.62;8.40;;;;;;;1.83;51.94;100132.28;1784669;80;21214;-71
2021/03/07 07:07:17;;;;;;;23.02;10.23;;;;;;;1.80;50.86;100127.11;1786226;80;21114;-70
2021/03/07 07:09:49;;;;;;;20.52;10.65;;;;;;;2.00;52.30;100140.47;1786120;80;21155;-70
2021/03/07 07:12:25;;;;;;;19.40;9.60;;;;;;;2.30;51.46;100113.13;1785201;80;22331;-72
2021/03/07 07:15:07;;;;;;;19.62;10.20;;;;;;;2.82;50.26;100107.25;1781046;80;21166;-71
2021/03/07 07:17:37;;;;;;;21.12;10.05;;;;;;;2.82;50.26;100107.25;1791037;79;21192;-70
2021/03/07 07:20:08;;;;;;;25.75;12.28;;;;;;;3.22;50.47;100108.28;1781792;80;21229;-70
2021/03/07 07:22:38;;;;;;;22.05;11.15;;;;;;;3.50;47.02;100099.39;1773298;80;21637;-71
2021/03/07 07:25:09;;;;;;;26.77;11.25;;;;;;;3.84;47.46;100096.45;1784703;80;21421;-68
2021/03/07 07:27:39;;;;;;;19.52;10.95;;;;;;;3.92;45.61;100094.64;1783715;80;21142;-69
2021/03/07 07:30:08;;;;;;;18.62;9.90;;;;;;;4.18;46.16;100096.95;1757361;80;21125;-74
2021/03/07 07:32:41;;;;;;;24.30;11.03;;;;;;;4.50;46.45;100092.24;1773493;79;21605;-74
2021/03/07 07:35:19;;;;;;;24.60;11.73;;;;;;;4.57;44.49;100079.09;1769520;80;21158;-73
2021/03/07 07:38:01;;;;;;;20.25;11.30;;;;;;;4.31;46.48;100080.73;1778656;80;21397;-75
2021/03/07 07:40:41;;;;;;;18.67;11.05;;;;;;;3.93;48.50;100083.36;1777060;80;21162;-73
2021/03/07 07:43:10;;;;;;;23.22;9.78;;;;;;;3.98;45.92;100075.05;1780030;80;21086;-72
2021/03/07 07:45:39;;;;;;;18.60;10.90;;;;;;;4.14;46.23;100074.44;1783614;80;21605;-71
2021/03/07 07:48:09;;;;;;;17.73;10.85;;;;;;;4.36;46.76;100066.34;1776336;80;21186;-70
2021/03/07 07:50:39;;;;;;;18.80;9.68;;;;;;;4.59;45.01;100064.73;1776549;80;21087;-70
2021/03/07 07:53:18;;;;;;;24.37;11.10;;;;;;;4.82;43.64;100044.84;1766100;80;21622;-71
2021/03/07 07:55:57;;;;;;;20.90;10.80;;;;;;;4.76;43.70;100044.50;1750311;80;21221;-73
2021/03/07 07:58:42;;;;;;;20.90;10.40;;;;;;;5.05;43.86;100036.66;1776404;80;21170;-71
2021/03/07 08:01:12;;;;;;;22.37;10.95;;;;;;;5.23;45.64;100034.20;1771247;79;21182;-71
2021/03/07 08:03:46;;;;;;;26.68;12.15;;;;;;;4.86;43.26;100013.05;1766816;80;21221;-71
2021/03/07 08:06:30;;;;;;;19.87;10.78;;;;;;;4.43;44.33;100024.11;1754889;80;21207;-73
2021/03/07 08:09:01;;;;;;;21.17;9.48;;;;;;;3.93;46.72;100028.64;1744257;81;21122;-73
2021/03/07 08:11:30;;;;;;;25.40;11.05;;;;;;;3.32;46.67;100024.05;1736996;81;21169;-73
2021/03/07 08:14:00;;;;;;;18.15;9.28;;;;;;;3.00;47.85;100023.89;1759581;80;21203;-74
2021/03/07 08:16:44;;;;;;;21.93;10.10;;;;;;;2.61;49.74;100018.09;1759786;81;21498;-71
2021/03/07 08:19:18;;;;;;;16.75;8.88;;;;;;;2.25;49.80;100020.45;1749794;80;21199;-70
2021/03/07 08:21:59;;;;;;;17.07;9.48;;;;;;;2.04;53.64;100018.82;1750331;81;21595;-70
2021/03/07 08:24:56;;;;;;;20.50;10.68;;;;;;;1.89;56.13;100010.22;1759868;81;21200;-69
2021/03/07 08:27:39;;;;;;;23.30;9.80;;;;;;;1.98;52.86;100011.05;1760129;81;21199;-69
2021/03/07 08:30:13;;;;;;;21.00;9.45;;;;;;;1.92;56.05;100000.70;1759785;81;21338;-68
2021/03/07 08:32:45;;;;;;;22.70;10.58;;;;;;;1.72;59.22;100004.66;1759899;81;21699;-69
2021/03/07 08:35:24;;;;;;;15.30;8.25;;;;;;;1.71;53.26;100006.39;1754352;81;21173;-70
2021/03/07 08:38:14;;;;;;;19.57;9.43;;;;;;;1.72;59.31;99999.02;1754115;81;21105;-69
2021/03/07 08:40:56;;;;;;;18.40;8.50;;;;;;;1.71;58.68;99995.15;1751907;81;21728;-72
2021/03/07 08:43:31;;;;;;;16.23;9.18;;;;;;;1.71;53.92;99992.55;1737326;81;21666;-73
2021/03/07 08:46:05;;;;;;;18.48;8.83;;;;;;;1.64;58.42;99998.19;1778878;80;21190;-73
2021/03/07 08:48:33;;;;;;;19.17;10.40;;;;;;;1.61;61.74;99995.59;1740263;82;21216;-74
2021/03/07 08:51:03;;;;;;;20.08;7.17;;;;;;;1.63;53.76;99996.04;1779096;80;21178;-74
2021/03/07 08:53:37;;;;;;;16.77;9.05;;;;;;;1.59;61.51;99984.38;1758755;81;21186;-74
2021/03/07 08:56:05;;;;;;;14.73;8.10;;;;;;;1.49;56.33;99995.63;1754858;81;21211;-74
2021/03/07 08:58:33;;;;;;;17.60;9.03;;;;;;;1.48;54.88;99977.05;1741565;82;21325;-72
2021/03/07 09:01:01;;;;;;;24.87;10.32;;;;;;;1.47;63.32;99974.86;1789789;80;21169;-73
2021/03/07 09:03:30;;;;;;;17.17;10.63;;;;;;;1.57;54.34;99990.00;1787672;80;21150;-74
2021/03/07 09:05:58;;;;;;;21.57;9.95;;;;;;;1.64;56.74;99982.62;1786190;80;21178;-65
2021/03/07 09:08:27;;;;;;;21.48;10.40;;;;;;;1.61;59.93;99985.20;1786173;80;21217;-66
2021/03/07 09:10:59;;;;;;;22.27;11.15;;;;;;;1.64;54.47;99970.94;1786040;80;21194;-65
2021/03/07 09:13:29;;;;;;;21.40;9.85;;;;;;;1.72;68.37;99971.76;1786180;80;21133;-67
2021/03/07 09:16:01;;;;;;;25.02;10.25;;;;;;;1.86;57.28;99970.00;1786255;80;21143;-64
2021/03/07 09:18:37;;;;;;;21.02;9.60;;;;;;;1.88;54.25;99953.94;1786338;80;21123;-66
2021/03/07 09:21:09;;;;;;;17.00;9.03;;;;;;;1.89;64.38;99960.88;1783270;80;22117;-66
2021/03/07 09:23:46;;;;;;;21.67;10.67;;;;;;;1.98;54.26;99955.20;1784758;80;21167;-65
2021/03/07 09:26:16;;;;;;;16.25;9.08;;;;;;;2.01;57.58;99950.02;1784739;80;21191;-66
2021/03/07 09:28:49;;;;;;;18.97;9.83;;;;;;;1.95;63.74;99961.72;1752816;81;21207;-65
2021/03/07 09:31:25;;;;;;;16.00;8.75;;;;;;;1.93;54.29;99943.98;1752866;81;21309;-65
2021/03/07 09:33:56;;;;;;;20.25;9.45;;;;;;;1.84;56.27;99953.96;1751678;81;21598;-65
2021/03/07 09:36:25;;;;;;;17.70;9.60;;;;;;;1.62;58.16;99944.12;1723471;83;21223;-65
2021/03/07 09:39:03;;;;;;;19.92;9.65;;;;;;;1.53;55.08;99949.34;1724098;83;21776;-67
2021/03/07 09:41:39;;;;;;;17.35;9.30;;;;;;;1.54;68.10;99948.45;1723580;83;21238;-66
2021/03/07 09:44:15;;;;;;;16.65;10.48;;;;;;;1.59;57.01;99959.71;1724016;83;21686;-65
2021/03/07 09:46:46;;;;;;;14.90;8.13;;;;;;;1.63;56.15;99948.02;1741047;82;21413;-65
2021/03/07 09:49:14;;;;;;;23.40;9.83;;;;;;;1.68;70.78;99953.19;1785841;80;21197;-65
2021/03/07 09:51:43;;;;;;;20.75;10.03;;;;;;;1.77;56.20;99957.45;1785900;80;21142;-65
2021/03/07 09:54:13;;;;;;;18.70;9.10;;;;;;;1.78;57.22;99947.08;1755966;80;21195;-66
2021/03/07 09:56:42;;;;;;;18.30;7.42;;;;;;;1.69;63.74;99954.91;1772129;80;21199;-64
2021/03/07 09:59:21;;;;;;;16.57;9.48;;;;;;;1.66;55.38;99954.48;1775683;80;21177;-65
2021/03/07 10:02:05;;;;;;;16.57;8.98;;;;;;;1.69;61.44;99948.41;1775538;80;21124;-67
2021/03/07 10:04:45;;;;;;;20.50;9.25;;;;;;;1.77;62.63;99941.47;1776107;80;22160;-65
2021/03/07 10:07:21;;;;;;;14.45;7.97;;;;;;;1.87;56.15;99936.66;1776064;80;21205;-65
2021/03/07 10:10:11;;;;;;;15.83;7.10;;;;;;;1.85;62.36;99947.48;1775879;80;21174;-67
2021/03/07 10:12:45;;;;;;;24.98;10.78;;;;;;;1.75;57.45;99954.00;1775802;80;21358;-65
2021/03/07 10:15:37;;;;;;;17.07;8.33;;;;;;;1.70;55.75;99944.08;1775410;80;21163;-64
2021/03/07 10:18:17;;;;;;;16.73;8.75;;;;;;;1.72;65.60;99949.69;1775720;80;21179;-68
2021/03/07 10:20:51;;;;;;;20.43;10.08;;;;;;;1.73;64.50;99943.64;1775958;80;21170;-68
2021/03/07 10:23:19;;;;;;;18.92;9.15;;;;;;;1.76;56.26;99938.43;1775811;80;21124;-68
2021/03/07 10:25:48;;;;;;;15.58;9.23;;;;;;;1.76;58.34;99920.70;1775839;80;22276;-68
2021/03/07 10:28:28;;;;;;;21.42;9.98;;;;;;;1.66;61.33;99923.77;1773076;80;21179;-67
2021/03/07 10:31:13;;;;;;;14.35;8.38;;;;;;;1.66;56.02;99910.80;1775986;80;21222;-68
2021/03/07 10:33:41;;;;;;;16.65;8.63;;;;;;;1.61;66.81;99906.03;1775829;80;21186;-68
2021/03/07 10:36:19;;;;;;;30.37;8.15;;;;;;;1.61;60.42;99906.03;1776029;80;21151;-67
2021/03/07 10:38:51;;;;;;;15.08;8.53;;;;;;;1.61;56.36;99896.95;1775828;80;21437;-67
2021/03/07 10:41:25;;;;;;;22.77;9.80;;;;;;;1.65;65.34;99899.52;1772974;80;21186;-68
2021/03/07 10:43:56;;;;;;;19.60;10.70;;;;;;;1.72;57.97;99892.58;1775806;80;21178;-68
2021/03/07 10:46:33;;;;;;;19.17;8.98;;;;;;;1.81;57.93;99887.33;1776192;80;21237;-66
2021/03/07 10:49:08;;;;;;;22.27;10.98;;;;;;;1.75;62.49;99879.59;1776239;80;21134;-65
2021/03/07 10:51:37;;;;;;;17.35;8.40;;;;;;;1.77;56.39;99870.07;1775965;80;21325;-68
2021/03/07 10:54:06;;;;;;;23.80;8.93;;;;;;;1.73;56.81;99861.86;1771384;78;21175;-68
2021/03/07 10:56:38;;;;;;;19.73;9.83;;;;;;;1.71;65.79;99861.45;1761888;80;21361;-67
2021/03/07 10:59:05;;;;;;;17.85;8.65;;;;;;;1.81;56.74;99869.16;1774115;80;21174;-69
2021/03/07 11:01:33;;;;;;;16.90;9.55;;;;;;;1.94;70.67;99856.13;1762765;80;21170;-66
2021/03/07 11:04:01;;;;;;;16.52;6.70;;;;;;;2.09;61.14;99850.80;1782318;80;21190;-66
2021/03/07 11:06:29;;;;;;;21.42;8.73;;;;;;;2.14;56.48;99856.86;1782713;80;21142;-65
2021/03/07 11:08:56;;;;;;;19.67;9.50;;;;;;;2.00;63.50;99850.87;1782808;80;21562;-66
2021/03/07 11:11:24;;;;;;;31.68;9.38;;;;;;;1.94;56.05;99841.84;1782709;80;21186;-66
2021/03/07 11:13:51;;;;;;;13.45;8.70;;;;;;;1.87;58.90;99847.06;1783720;80;22169;-66
2021/03/07 11:16:19;;;;;;;18.15;9.83;;;;;;;1.80;63.94;99841.48;1784293;80;21770;-67
2021/03/07 11:18:47;;;;;;;17.52;8.78;;;;;;;1.86;57.02;99836.27;1782891;80;21206;-66
2021/03/07 11:21:15;;;;;;;16.73;10.13;;;;;;;1.87;66.89;99840.56;1782262;80;21181;-67
2021/03/07 11:23:42;;;;;;;18.25;10.80;;;;;;;1.93;57.14;99834.91;1711791;80;21151;-65
2021/03/07 11:26:10;;;;;;;19.40;9.25;;;;;;;1.93;58.39;99827.97;1781365;80;21187;-66
2021/03/07 11:28:38;;;;;;;23.02;11.25;;;;;;;1.93;65.64;99829.70;1781229;80;21808;-67
2021/03/07 11:31:05;;;;;;;17.20;8.73;;;;;;;2.02;57.69;99829.64;1783335;80;21244;-66
2021/03/07 11:33:36;;;;;;;14.50;8.00;;;;;;;2.06;67.94;99832.66;1783243;80;21201;-66
2021/03/07 11:36:05;;;;;;;21.30;9.18;;;;;;;1.88;56.73;99818.91;1783484;79;21197;-67
2021/03/07 11:38:33;;;;;;;12.35;6.37;;;;;;;1.88;56.73;99818.91;1785350;80;21207;-67
2021/03/07 11:41:02;;;;;;;20.77;9.80;;;;;;;1.85;63.22;99816.34;1783398;80;22223;-67
2021/03/07 11:43:31;;;;;;;20.48;9.73;;;;;;;1.84;56.31;99809.85;1783577;80;21147;-66
2021/03/07 11:45:58;;;;;;;14.73;8.23;;;;;;;1.91;59.75;99801.59;1783141;80;21142;-68